createdAt,value
2022-09-07T00:01:44.495Z,8.10
2022-09-07T00:04:30.411Z,7.05
2022-09-07T00:07:16.261Z,7.05
2022-09-07T00:10:02.225Z,7.00
2022-09-07T00:12:48.287Z,7.38
2022-09-07T00:15:40.703Z,6.88
2022-09-07T00:18:26.689Z,6.78
2022-09-07T00:21:14.150Z,7.45
2022-09-07T00:24:00.383Z,7.28
2022-09-07T00:26:46.500Z,6.85
2022-09-07T00:29:32.316Z,7.10
2022-09-07T00:32:18.323Z,6.65
2022-09-07T00:35:04.585Z,7.18
2022-09-07T00:37:50.352Z,6.72
2022-09-07T00:40:36.490Z,6.57
2022-09-07T00:43:44.113Z,7.57
2022-09-07T00:46:34.097Z,6.90
2022-09-07T00:49:22.827Z,6.68
2022-09-07T00:52:09.367Z,7.57
2022-09-07T00:54:59.115Z,6.78
2022-09-07T00:57:52.263Z,6.90
2022-09-07T01:00:40.282Z,6.97
2022-09-07T01:03:30.448Z,6.72
2022-09-07T01:06:22.944Z,6.75
2022-09-07T01:09:17.389Z,7.57
2022-09-07T01:12:05.019Z,6.78
2022-09-07T01:14:52.385Z,6.68
2022-09-07T01:18:21.672Z,6.80
2022-09-07T01:21:10.253Z,7.18
2022-09-07T01:24:34.080Z,7.03
2022-09-07T01:27:41.888Z,7.10
2022-09-07T01:30:29.760Z,6.65
2022-09-07T01:33:33.608Z,7.38
2022-09-07T01:36:36.112Z,7.38
2022-09-07T01:39:26.780Z,6.60
2022-09-07T01:42:16.008Z,7.00
2022-09-07T01:45:05.027Z,6.82
2022-09-07T01:47:54.525Z,7.07
2022-09-07T01:50:48.661Z,6.90
2022-09-07T01:53:39.852Z,7.28
2022-09-07T01:56:38.504Z,7.18
2022-09-07T01:59:29.719Z,7.28
2022-09-07T02:02:19.499Z,6.78
2022-09-07T02:05:30.679Z,6.95
2022-09-07T02:08:40.620Z,7.40
2022-09-07T02:11:36.832Z,6.97
2022-09-07T02:14:28.936Z,6.47
2022-09-07T02:17:22.965Z,7.55
2022-09-07T02:20:12.691Z,7.10
2022-09-07T02:23:01.144Z,7.65
2022-09-07T02:25:53.715Z,6.80
2022-09-07T02:28:39.917Z,6.85
2022-09-07T02:31:26.292Z,7.22
2022-09-07T02:34:12.662Z,7.47
2022-09-07T02:37:02.027Z,6.95
2022-09-07T02:39:49.598Z,7.18
2022-09-07T02:42:36.590Z,6.95
2022-09-07T02:45:22.905Z,7.00
2022-09-07T02:48:31.106Z,6.95
2022-09-07T02:51:20.322Z,7.22
2022-09-07T02:54:16.008Z,6.70
2022-09-07T02:57:17.959Z,7.03
2022-09-07T03:00:09.953Z,6.88
2022-09-07T03:03:32.313Z,6.60
2022-09-07T03:06:55.665Z,7.38
2022-09-07T03:09:48.272Z,6.53
2022-09-07T03:12:41.743Z,7.05
2022-09-07T03:15:29.193Z,6.95
2022-09-07T03:18:15.635Z,7.22
2022-09-07T03:21:02.027Z,7.03
2022-09-07T03:23:51.688Z,7.22
2022-09-07T03:26:45.021Z,7.03
2022-09-07T03:29:31.631Z,7.05
2022-09-07T03:32:18.121Z,6.72
2022-09-07T03:35:06.906Z,6.57
2022-09-07T03:37:53.273Z,6.93
2022-09-07T03:40:39.634Z,6.63
2022-09-07T03:43:26.445Z,6.53
2022-09-07T03:46:15.098Z,7.55
2022-09-07T03:49:01.413Z,7.25
2022-09-07T03:51:47.843Z,6.63
2022-09-07T03:54:37.825Z,7.88
2022-09-07T03:57:25.631Z,7.28
2022-09-07T04:00:12.464Z,7.03
2022-09-07T04:02:58.761Z,7.05
2022-09-07T04:05:45.228Z,6.95
2022-09-07T04:08:33.967Z,6.82
2022-09-07T04:11:20.491Z,7.38
2022-09-07T04:14:07.766Z,7.00
2022-09-07T04:16:54.264Z,6.90
2022-09-07T04:19:40.588Z,7.40
2022-09-07T04:22:27.058Z,7.75
2022-09-07T04:25:13.344Z,7.05
2022-09-07T04:27:59.626Z,7.25
2022-09-07T04:30:46.353Z,7.97
2022-09-07T04:33:33.427Z,8.18
2022-09-07T04:36:20.444Z,7.07
2022-09-07T04:39:06.445Z,6.88
2022-09-07T04:41:52.913Z,7.60
2022-09-07T04:44:39.234Z,7.22
2022-09-07T04:47:25.690Z,7.50
2022-09-07T04:50:12.050Z,8.05
2022-09-07T04:52:58.285Z,9.00
2022-09-07T04:55:44.799Z,8.27
2022-09-07T04:58:31.314Z,8.00
2022-09-07T05:01:20.106Z,8.05
2022-09-07T05:04:05.972Z,8.07
2022-09-07T05:06:53.730Z,7.53
2022-09-07T05:09:39.605Z,7.93
2022-09-07T05:12:25.612Z,7.85
2022-09-07T05:15:11.635Z,7.10
2022-09-07T05:17:58.470Z,7.63
2022-09-07T05:20:44.678Z,7.18
2022-09-07T05:23:30.543Z,7.38
2022-09-07T05:26:16.513Z,7.78
2022-09-07T05:32:11.524Z,8.45
2022-09-07T05:34:57.389Z,9.15
2022-09-07T05:37:43.229Z,8.52
2022-09-07T05:40:31.873Z,9.50
2022-09-07T05:43:18.042Z,11.95
2022-09-07T05:46:04.353Z,14.75
2022-09-07T05:48:50.249Z,17.73
2022-09-07T05:51:37.303Z,9.82
2022-09-07T05:54:23.248Z,9.15
2022-09-07T05:57:11.665Z,8.25
2022-09-07T05:59:57.709Z,8.43
2022-09-07T06:02:44.298Z,8.52
2022-09-07T06:05:30.471Z,9.77
2022-09-07T06:08:17.733Z,9.13
2022-09-07T06:11:11.425Z,9.60
2022-09-07T06:13:57.558Z,9.38
2022-09-07T06:16:43.883Z,9.77
2022-09-07T06:19:29.855Z,9.05
2022-09-07T06:22:15.781Z,9.38
2022-09-07T06:25:02.110Z,9.63
2022-09-07T06:27:49.424Z,9.55
2022-09-07T06:30:35.609Z,9.05
2022-09-07T06:33:22.125Z,8.82
2022-09-07T06:36:28.918Z,9.93
2022-09-07T06:39:15.676Z,9.13
2022-09-07T06:42:02.308Z,10.30
2022-09-07T06:44:50.096Z,9.20
2022-09-07T06:47:36.973Z,11.57
2022-09-07T06:50:23.405Z,10.10
2022-09-07T06:56:17.913Z,9.70
2022-09-07T06:59:04.179Z,9.07
2022-09-07T07:01:50.673Z,9.23
2022-09-07T07:04:40.824Z,9.05
2022-09-07T07:07:27.818Z,8.43
2022-09-07T07:10:14.187Z,8.48
2022-09-07T07:13:00.568Z,8.73
2022-09-07T07:15:47.953Z,7.95
2022-09-07T07:18:34.508Z,10.50
2022-09-07T07:21:20.780Z,10.65
2022-09-07T07:24:08.291Z,7.82
2022-09-07T07:26:54.467Z,9.10
2022-09-07T07:29:40.810Z,8.02
2022-09-07T07:32:27.672Z,10.80
2022-09-07T07:35:14.394Z,10.32
2022-09-07T07:44:14.616Z,10.85
2022-09-07T07:47:00.948Z,13.02
2022-09-07T07:49:47.208Z,14.20
2022-09-07T07:55:45.396Z,9.90
2022-09-07T07:58:33.814Z,8.65
2022-09-07T08:01:19.849Z,7.75
2022-09-07T08:04:05.952Z,8.07
2022-09-07T08:06:52.466Z,8.30
2022-09-07T08:09:43.444Z,8.98
2022-09-07T08:12:31.421Z,9.27
2022-09-07T08:15:17.421Z,8.48
2022-09-07T08:18:03.940Z,9.02
2022-09-07T08:20:49.984Z,9.25
2022-09-07T08:23:36.156Z,8.18
2022-09-07T08:26:22.210Z,9.23
2022-09-07T08:29:08.258Z,9.98
2022-09-07T08:31:55.058Z,9.30
2022-09-07T08:34:40.816Z,7.72
2022-09-07T08:37:27.022Z,8.52
2022-09-07T08:40:17.946Z,8.38
2022-09-07T08:43:13.871Z,8.85
2022-09-07T08:46:06.570Z,9.13
2022-09-07T08:51:43.643Z,8.02
2022-09-07T08:54:30.227Z,8.48
2022-09-07T08:57:21.306Z,8.15
2022-09-07T09:00:13.975Z,7.05
2022-09-07T09:06:35.441Z,7.60
2022-09-07T09:09:27.379Z,7.60
2022-09-07T09:12:19.866Z,6.90
2022-09-07T09:18:21.915Z,6.85
2022-09-07T09:21:15.206Z,6.47
2022-09-07T09:24:11.958Z,6.72
2022-09-07T09:26:58.232Z,6.20
2022-09-07T09:29:45.924Z,8.07
2022-09-07T09:32:42.986Z,5.85
2022-09-07T09:35:33.674Z,5.65
2022-09-07T09:38:40.536Z,7.28
2022-09-07T09:41:36.006Z,7.20
2022-09-07T09:44:23.066Z,6.65
2022-09-07T09:47:31.054Z,7.20
2022-09-07T09:53:55.557Z,6.85
2022-09-07T09:56:43.900Z,8.18
2022-09-07T10:05:46.754Z,8.95
2022-09-07T10:08:33.423Z,7.68
2022-09-07T10:11:19.837Z,7.28
2022-09-07T10:14:24.350Z,7.60
2022-09-07T10:17:24.999Z,7.43
2022-09-07T10:20:16.599Z,7.15
2022-09-07T10:23:04.868Z,8.00
2022-09-07T10:25:51.283Z,6.68
2022-09-07T10:32:05.874Z,7.97
2022-09-07T10:34:54.901Z,8.02
2022-09-07T10:38:02.461Z,7.78
2022-09-07T10:41:07.393Z,9.73
2022-09-07T10:43:53.784Z,8.60
2022-09-07T10:46:59.862Z,8.38
2022-09-07T10:50:25.227Z,7.65
2022-09-07T10:53:42.273Z,7.40
2022-09-07T10:56:33.349Z,8.38
2022-09-07T10:59:22.441Z,7.57
2022-09-07T11:02:19.783Z,6.85
2022-09-07T11:05:36.038Z,6.90
2022-09-07T11:09:15.098Z,7.53
2022-09-07T11:12:05.484Z,6.90
2022-09-07T11:15:13.373Z,7.35
2022-09-07T11:18:14.717Z,7.88
2022-09-07T11:21:04.210Z,6.63
2022-09-07T11:23:52.502Z,6.55
2022-09-07T11:26:54.291Z,6.07
2022-09-07T11:29:49.078Z,8.90
2022-09-07T11:32:48.963Z,10.38
2022-09-07T11:35:48.935Z,13.32
2022-09-07T11:38:39.087Z,8.18
2022-09-07T11:41:28.331Z,8.48
2022-09-07T11:44:18.891Z,7.50
2022-09-07T11:47:12.213Z,7.45
2022-09-07T11:49:59.520Z,7.20
2022-09-07T11:52:58.648Z,8.10
2022-09-07T11:55:47.861Z,8.23
2022-09-07T11:58:49.694Z,10.63
2022-09-07T12:02:17.894Z,12.00
2022-09-07T12:05:34.343Z,13.52
2022-09-07T12:08:39.399Z,8.68
2022-09-07T12:11:43.738Z,7.03
2022-09-07T12:14:38.941Z,7.95
2022-09-07T12:17:50.062Z,7.68
2022-09-07T12:20:41.212Z,8.65
2022-09-07T12:23:31.521Z,10.85
2022-09-07T12:26:33.052Z,11.27
2022-09-07T12:29:21.407Z,18.73
2022-09-07T12:35:28.226Z,9.23
2022-09-07T12:38:14.004Z,8.05
2022-09-07T12:41:22.627Z,8.90
2022-09-07T12:44:15.587Z,7.15
2022-09-07T12:47:29.192Z,7.60
2022-09-07T12:50:25.256Z,12.57
2022-09-07T12:53:14.333Z,13.68
2022-09-07T12:56:23.978Z,13.93
2022-09-07T12:59:29.436Z,9.00
2022-09-07T13:02:46.427Z,7.10
2022-09-07T13:06:00.589Z,8.27
2022-09-07T13:09:04.922Z,9.90
2022-09-07T13:11:51.494Z,9.82
2022-09-07T13:14:38.721Z,10.10
2022-09-07T13:17:35.041Z,10.57
2022-09-07T13:20:23.702Z,8.10
2022-09-07T13:23:21.014Z,11.60
2022-09-07T13:26:52.257Z,8.85
2022-09-07T13:30:03.870Z,6.63
2022-09-07T13:33:09.713Z,10.50
2022-09-07T13:36:08.774Z,8.23
2022-09-07T13:39:08.490Z,6.07
2022-09-07T13:42:01.052Z,6.70
2022-09-07T13:45:42.781Z,8.40
2022-09-07T13:49:04.659Z,9.70
2022-09-07T13:55:37.297Z,6.97
2022-09-07T13:58:26.282Z,5.15
2022-09-07T14:01:17.188Z,6.10
2022-09-07T14:04:07.562Z,6.30
2022-09-07T14:07:09.472Z,8.05
2022-09-07T14:10:18.686Z,7.05
2022-09-07T14:13:12.063Z,8.63
2022-09-07T14:15:58.008Z,5.55
2022-09-07T14:18:44.530Z,6.18
2022-09-07T14:21:30.460Z,6.38
2022-09-07T14:24:31.127Z,6.82
2022-09-07T14:27:43.187Z,5.30
2022-09-07T14:30:33.293Z,6.43
2022-09-07T14:33:20.412Z,5.32
2022-09-07T14:36:29.456Z,5.68
2022-09-07T14:39:13.915Z,6.13
2022-09-07T14:42:03.413Z,5.80
2022-09-07T14:44:50.233Z,7.43
2022-09-07T14:47:36.331Z,6.20
2022-09-07T14:50:39.178Z,5.25
2022-09-07T14:53:34.865Z,4.88
2022-09-07T14:56:23.630Z,5.55
2022-09-07T14:59:44.483Z,4.35
2022-09-07T15:02:36.197Z,5.68
2022-09-07T15:05:25.767Z,6.13
2022-09-07T15:08:20.605Z,6.55
2022-09-07T15:11:34.889Z,5.10
2022-09-07T15:14:21.109Z,4.90
2022-09-07T15:20:44.355Z,5.40
2022-09-07T15:23:30.089Z,6.05
2022-09-07T15:29:23.130Z,5.20
2022-09-07T15:32:10.441Z,6.00
2022-09-07T15:34:56.561Z,6.90
2022-09-07T15:41:20.762Z,5.68
2022-09-07T15:44:00.269Z,5.97
2022-09-07T15:49:53.923Z,6.13
2022-09-07T15:52:40.102Z,8.13
2022-09-07T15:55:26.069Z,8.70
2022-09-07T15:58:13.048Z,6.80
2022-09-07T16:04:13.153Z,6.40
2022-09-07T16:07:01.538Z,6.70
2022-09-07T16:09:48.848Z,7.35
2022-09-07T16:15:46.325Z,9.82
2022-09-07T16:18:34.004Z,9.68
2022-09-07T16:21:26.055Z,8.73
2022-09-07T16:24:12.624Z,9.30
2022-09-07T16:26:58.865Z,9.93
2022-09-07T16:29:45.191Z,11.65
2022-09-07T16:32:46.691Z,10.48
2022-09-07T16:35:33.137Z,11.52
2022-09-07T16:41:29.112Z,11.07
2022-09-07T16:44:16.356Z,8.02
2022-09-07T16:47:02.600Z,7.32
2022-09-07T16:49:48.893Z,7.97
2022-09-07T16:52:34.848Z,7.82
2022-09-07T16:55:20.827Z,7.88
2022-09-07T17:01:18.449Z,6.63
2022-09-07T17:04:09.877Z,8.18
2022-09-07T17:06:56.586Z,8.35
2022-09-07T17:09:42.918Z,10.23
2022-09-07T17:12:29.129Z,7.70
2022-09-07T17:15:15.276Z,6.53
2022-09-07T17:18:01.649Z,7.30
2022-09-07T17:20:58.607Z,7.68
2022-09-07T17:23:53.917Z,8.45
2022-09-07T17:26:42.775Z,8.32
2022-09-07T17:29:30.831Z,10.88
2022-09-07T17:32:24.844Z,8.65
2022-09-07T17:35:11.665Z,9.23
2022-09-07T17:37:57.924Z,9.25
2022-09-07T17:40:44.124Z,9.07
2022-09-07T17:43:46.052Z,8.75
2022-09-07T17:46:33.106Z,8.30
2022-09-07T17:49:19.062Z,9.38
2022-09-07T17:52:05.528Z,7.70
2022-09-07T17:54:55.400Z,7.15
2022-09-07T17:57:41.592Z,7.38
2022-09-07T18:00:27.623Z,7.43
2022-09-07T18:03:14.366Z,6.95
2022-09-07T18:06:00.821Z,7.78
2022-09-07T18:08:47.005Z,8.48
2022-09-07T18:11:49.907Z,7.78
2022-09-07T18:14:36.363Z,7.28
2022-09-07T18:17:22.283Z,7.78
2022-09-07T18:20:09.510Z,8.10
2022-09-07T18:22:56.077Z,8.43
2022-09-07T18:25:43.573Z,8.45
2022-09-07T18:31:36.108Z,8.02
2022-09-07T18:34:22.321Z,8.00
2022-09-07T18:37:09.273Z,8.10
2022-09-07T18:39:55.748Z,8.40
2022-09-07T18:42:42.226Z,7.78
2022-09-07T18:45:28.536Z,7.97
2022-09-07T18:48:14.979Z,8.23
2022-09-07T18:51:01.940Z,10.43
2022-09-07T18:53:48.330Z,19.10
2022-09-07T18:56:34.677Z,15.15
2022-09-07T18:59:20.848Z,12.60
2022-09-07T19:02:08.498Z,9.52
2022-09-07T19:08:03.582Z,8.60
2022-09-07T19:10:49.840Z,9.25
2022-09-07T19:13:36.378Z,8.68
2022-09-07T19:16:22.949Z,10.52
2022-09-07T19:19:11.773Z,10.40
2022-09-07T19:21:58.383Z,11.10
2022-09-07T19:24:44.545Z,9.38
2022-09-07T19:27:33.014Z,8.98
2022-09-07T19:30:19.137Z,9.45
2022-09-07T19:33:09.888Z,8.68
2022-09-07T19:35:56.215Z,9.10
2022-09-07T19:38:42.449Z,10.93
2022-09-07T19:41:28.777Z,10.75
2022-09-07T19:44:14.926Z,10.20
2022-09-07T19:47:01.048Z,9.23
2022-09-07T19:49:47.212Z,9.20
2022-09-07T19:52:33.294Z,9.10
2022-09-07T19:55:19.329Z,9.25
2022-09-07T19:58:05.710Z,8.95
2022-09-07T20:00:51.687Z,9.18
2022-09-07T20:03:41.257Z,9.30
2022-09-07T20:06:27.917Z,10.40
2022-09-07T20:09:14.863Z,9.50
2022-09-07T20:12:02.821Z,11.48
2022-09-07T20:14:48.593Z,10.90
2022-09-07T20:17:35.629Z,10.85
2022-09-07T20:20:22.195Z,10.85
2022-09-07T20:23:08.629Z,10.57
2022-09-07T20:25:59.022Z,10.65
2022-09-07T20:28:46.282Z,10.15
2022-09-07T20:31:32.589Z,10.55
2022-09-07T20:34:18.584Z,10.40
2022-09-07T20:37:05.381Z,11.00
2022-09-07T20:39:51.701Z,9.45
2022-09-07T20:42:39.408Z,12.07
2022-09-07T20:45:29.757Z,12.18
2022-09-07T20:48:17.661Z,12.68
2022-09-07T20:51:04.627Z,12.30
2022-09-07T20:53:50.835Z,11.60
2022-09-07T20:56:36.978Z,11.77
2022-09-07T20:59:23.249Z,10.45
2022-09-07T21:02:10.179Z,9.13
2022-09-07T21:04:56.283Z,9.93
2022-09-07T21:07:42.195Z,10.20
2022-09-07T21:10:28.152Z,12.95
2022-09-07T21:13:14.645Z,12.77
2022-09-07T21:16:27.657Z,12.55
2022-09-07T21:19:13.882Z,12.07
2022-09-07T21:21:59.797Z,12.43
2022-09-07T21:24:45.785Z,12.75
2022-09-07T21:27:38.614Z,12.45
2022-09-07T21:30:25.099Z,12.07
2022-09-07T21:33:11.058Z,11.63
2022-09-07T21:36:04.203Z,11.20
2022-09-07T21:39:21.620Z,11.52
2022-09-07T21:42:07.510Z,11.15
2022-09-07T21:44:53.320Z,11.88
2022-09-07T21:47:39.173Z,11.05
2022-09-07T21:50:25.413Z,10.02
2022-09-07T21:53:12.713Z,10.32
2022-09-07T21:56:04.791Z,11.85
2022-09-07T21:58:58.571Z,10.40
2022-09-07T22:01:44.789Z,10.27
2022-09-07T22:04:31.142Z,10.77
2022-09-07T22:07:17.083Z,10.73
2022-09-07T22:10:03.229Z,10.55
2022-09-07T22:12:49.213Z,10.05
2022-09-07T22:15:39.733Z,10.02
2022-09-07T22:18:25.842Z,9.55
2022-09-07T22:21:17.634Z,10.50
2022-09-07T22:24:05.943Z,10.60
2022-09-07T22:26:52.922Z,10.50
2022-09-07T22:29:38.862Z,10.30
2022-09-07T22:32:24.619Z,10.32
2022-09-07T22:35:10.428Z,9.82
2022-09-07T22:37:56.500Z,9.73
2022-09-07T22:40:42.354Z,10.13
2022-09-07T22:43:28.378Z,8.93
2022-09-07T22:46:14.953Z,9.50
2022-09-07T22:49:00.891Z,9.38
2022-09-07T22:51:47.208Z,10.05
2022-09-07T22:54:33.010Z,9.27
2022-09-07T22:57:19.051Z,8.82
2022-09-07T23:00:06.308Z,8.70
2022-09-07T23:02:52.274Z,8.25
2022-09-07T23:05:38.169Z,7.40
2022-09-07T23:08:25.289Z,8.30
2022-09-07T23:11:11.179Z,8.15
2022-09-07T23:13:58.851Z,7.03
2022-09-07T23:16:45.204Z,8.00
2022-09-07T23:19:30.908Z,8.23
2022-09-07T23:22:16.694Z,8.55
2022-09-07T23:25:03.361Z,8.27
2022-09-07T23:27:49.528Z,8.77
2022-09-07T23:30:35.770Z,8.50
2022-09-07T23:33:22.056Z,8.20
2022-09-07T23:36:08.392Z,7.95
2022-09-07T23:38:56.241Z,8.32
2022-09-07T23:41:42.523Z,8.45
2022-09-07T23:44:28.313Z,7.90
2022-09-07T23:47:15.257Z,7.90
2022-09-07T23:50:01.171Z,7.40
2022-09-07T23:52:47.271Z,6.90
2022-09-07T23:55:33.561Z,7.43
2022-09-07T23:58:20.984Z,7.70
